createdAt,value
2018-03-03T00:01:03.260Z,69.02
2018-03-03T00:02:06.753Z,68.95
2018-03-03T00:03:10.084Z,68.93
2018-03-03T00:04:13.563Z,68.88
2018-03-03T00:05:16.870Z,68.81
2018-03-03T00:06:20.240Z,68.73
2018-03-03T00:07:23.638Z,68.67
2018-03-03T00:08:26.968Z,68.64
2018-03-03T00:09:30.312Z,68.62
2018-03-03T00:10:33.665Z,68.56
2018-03-03T00:11:37.125Z,68.48
2018-03-03T00:12:40.634Z,68.44
2018-03-03T00:13:43.958Z,68.41
2018-03-03T00:14:47.309Z,68.40
2018-03-03T00:15:50.643Z,68.35
2018-03-03T00:16:54.050Z,68.36
2018-03-03T00:17:57.441Z,68.41
2018-03-03T00:19:00.798Z,68.42
2018-03-03T00:20:04.108Z,68.44
2018-03-03T00:21:07.432Z,68.42
2018-03-03T00:22:10.918Z,68.46
2018-03-03T00:23:14.234Z,68.44
2018-03-03T00:24:17.652Z,68.45
2018-03-03T00:25:21.076Z,68.47
2018-03-03T00:26:24.417Z,68.52
2018-03-03T00:27:27.849Z,68.47
2018-03-03T00:28:31.168Z,68.44
2018-03-03T00:29:34.553Z,68.44
2018-03-03T00:30:37.982Z,68.46
2018-03-03T00:31:41.323Z,68.48
2018-03-03T00:32:44.657Z,68.40
2018-03-03T00:33:48.015Z,68.42
2018-03-03T00:34:51.338Z,68.42
2018-03-03T00:35:54.641Z,68.38
2018-03-03T00:36:58.042Z,68.39
2018-03-03T00:38:01.409Z,68.45
2018-03-03T00:39:04.802Z,68.47
2018-03-03T00:40:08.156Z,68.51
2018-03-03T00:41:11.533Z,68.55
2018-03-03T00:42:14.844Z,68.56
2018-03-03T00:43:18.216Z,68.52
2018-03-03T00:44:21.578Z,68.53
2018-03-03T00:45:24.969Z,68.52
2018-03-03T00:46:28.288Z,68.50
2018-03-03T00:47:31.638Z,68.50
2018-03-03T00:48:35.030Z,68.46
2018-03-03T00:49:38.411Z,68.50
2018-03-03T00:50:42.618Z,68.49
2018-03-03T00:51:45.942Z,68.49
2018-03-03T00:52:49.302Z,68.51
2018-03-03T00:53:52.699Z,68.50
2018-03-03T00:54:56.010Z,68.51
2018-03-03T00:55:59.609Z,68.50
2018-03-03T00:57:02.919Z,68.48
2018-03-03T00:58:06.321Z,68.47
2018-03-03T00:59:09.711Z,68.50
2018-03-03T01:00:13.102Z,68.53
2018-03-03T01:01:16.451Z,68.53
2018-03-03T01:02:19.762Z,68.52
2018-03-03T01:03:23.077Z,68.51
2018-03-03T01:04:26.427Z,68.49
2018-03-03T01:05:29.752Z,68.45
2018-03-03T01:06:33.080Z,68.42
2018-03-03T01:07:36.411Z,68.43
2018-03-03T01:08:39.740Z,68.44
2018-03-03T01:09:43.088Z,68.45
2018-03-03T01:10:46.443Z,68.45
2018-03-03T01:11:49.832Z,68.47
2018-03-03T01:12:53.166Z,68.45
2018-03-03T01:13:56.487Z,68.44
2018-03-03T01:14:59.901Z,68.45
2018-03-03T01:16:03.222Z,68.46
2018-03-03T01:17:06.687Z,68.49
2018-03-03T01:18:10.008Z,68.50
2018-03-03T01:19:13.305Z,68.50
2018-03-03T01:20:16.742Z,68.48
2018-03-03T01:21:20.065Z,68.47
2018-03-03T01:22:23.407Z,68.44
2018-03-03T01:23:26.756Z,68.45
2018-03-03T01:24:30.108Z,68.44
2018-03-03T01:25:33.448Z,68.42
2018-03-03T01:26:36.855Z,68.44
2018-03-03T01:27:40.216Z,68.48
2018-03-03T01:28:43.657Z,68.51
2018-03-03T01:29:46.997Z,68.54
2018-03-03T01:30:50.565Z,68.56
2018-03-03T01:31:53.913Z,68.58
2018-03-03T01:32:57.265Z,68.54
2018-03-03T01:34:00.712Z,68.52
2018-03-03T01:35:04.004Z,68.51
2018-03-03T01:36:07.378Z,68.53
2018-03-03T01:37:10.713Z,68.53
2018-03-03T01:38:14.053Z,68.53
2018-03-03T01:39:17.387Z,68.49
2018-03-03T01:40:20.719Z,68.46
2018-03-03T01:41:24.144Z,68.50
2018-03-03T01:42:27.463Z,68.52
2018-03-03T01:43:30.788Z,68.53
2018-03-03T01:44:34.189Z,68.56
2018-03-03T01:45:37.524Z,68.58
2018-03-03T01:46:40.882Z,68.59
2018-03-03T01:47:44.277Z,68.61
2018-03-03T01:48:47.613Z,68.64
2018-03-03T01:49:50.980Z,68.63
2018-03-03T01:50:54.439Z,68.65
2018-03-03T01:51:57.841Z,68.67
2018-03-03T01:53:01.341Z,68.68
2018-03-03T01:54:04.712Z,68.73
2018-03-03T01:55:08.049Z,68.75
2018-03-03T01:56:11.434Z,68.76
2018-03-03T01:57:14.768Z,68.79
2018-03-03T01:58:18.092Z,68.77
2018-03-03T01:59:21.431Z,68.78
2018-03-03T02:00:24.769Z,68.82
2018-03-03T02:01:28.224Z,68.84
2018-03-03T02:02:31.561Z,68.82
2018-03-03T02:03:34.963Z,68.85
2018-03-03T02:04:38.305Z,68.85
2018-03-03T02:05:41.628Z,68.85
2018-03-03T02:06:45.000Z,68.92
2018-03-03T02:07:48.369Z,68.96
2018-03-03T02:08:51.787Z,68.98
2018-03-03T02:09:55.112Z,69.04
2018-03-03T02:10:58.441Z,69.04
2018-03-03T02:12:02.293Z,69.08
2018-03-03T02:13:05.693Z,69.12
2018-03-03T02:14:09.068Z,69.17
2018-03-03T02:15:12.416Z,69.16
2018-03-03T02:16:15.852Z,69.16
2018-03-03T02:17:19.200Z,69.18
2018-03-03T02:18:22.608Z,69.17
2018-03-03T02:19:25.935Z,69.19
2018-03-03T02:20:29.304Z,69.20
2018-03-03T02:21:32.602Z,69.16
2018-03-03T02:22:35.953Z,69.17
2018-03-03T02:23:39.275Z,69.18
2018-03-03T02:24:42.622Z,69.20
2018-03-03T02:25:45.976Z,69.21
2018-03-03T02:26:50.052Z,69.27
2018-03-03T02:27:53.402Z,69.30
2018-03-03T02:28:56.898Z,69.34
2018-03-03T02:30:00.257Z,69.35
2018-03-03T02:31:03.603Z,69.34
2018-03-03T02:32:07.002Z,69.34
2018-03-03T02:33:10.541Z,69.33
2018-03-03T02:34:13.936Z,69.33
2018-03-03T02:35:17.247Z,69.33
2018-03-03T02:36:20.651Z,69.33
2018-03-03T02:37:24.079Z,69.36
2018-03-03T02:38:27.501Z,69.37
2018-03-03T02:39:30.927Z,69.38
2018-03-03T02:40:34.336Z,69.41
2018-03-03T02:41:37.797Z,69.44
2018-03-03T02:42:41.149Z,69.45
2018-03-03T02:43:44.621Z,69.43
2018-03-03T02:44:47.952Z,69.46
2018-03-03T02:45:51.312Z,69.50
2018-03-03T02:46:54.727Z,69.51
2018-03-03T02:47:58.030Z,69.51
2018-03-03T02:49:01.351Z,69.54
2018-03-03T02:50:04.759Z,69.58
2018-03-03T02:51:08.070Z,69.63
2018-03-03T02:52:11.458Z,69.68
2018-03-03T02:53:14.764Z,69.69
2018-03-03T02:54:18.166Z,69.72
2018-03-03T02:55:21.570Z,69.71
2018-03-03T02:56:24.993Z,69.74
2018-03-03T02:57:28.363Z,69.77
2018-03-03T02:58:31.733Z,69.80
2018-03-03T02:59:35.185Z,69.83
2018-03-03T03:00:38.793Z,69.86
2018-03-03T03:01:42.220Z,69.92
2018-03-03T03:02:45.597Z,69.99
2018-03-03T03:03:48.906Z,70.11
2018-03-03T03:04:52.309Z,70.18
2018-03-03T03:05:55.658Z,70.23
2018-03-03T03:06:58.948Z,70.30
2018-03-03T03:08:02.356Z,70.37
2018-03-03T03:09:05.710Z,70.44
2018-03-03T03:10:09.036Z,70.51
2018-03-03T03:11:12.383Z,70.55
2018-03-03T03:12:15.774Z,70.61
2018-03-03T03:13:19.084Z,70.63
2018-03-03T03:14:22.432Z,70.70
2018-03-03T03:15:25.837Z,70.77
2018-03-03T03:16:29.169Z,70.81
2018-03-03T03:17:32.533Z,70.81
2018-03-03T03:18:35.979Z,70.84
2018-03-03T03:19:39.304Z,70.83
2018-03-03T03:20:42.629Z,70.86
2018-03-03T03:21:46.060Z,70.86
2018-03-03T03:22:49.480Z,70.89
2018-03-03T03:23:52.793Z,70.91
2018-03-03T03:24:56.166Z,70.94
2018-03-03T03:25:59.495Z,70.93
2018-03-03T03:27:02.840Z,70.94
2018-03-03T03:28:06.159Z,70.96
2018-03-03T03:29:09.521Z,71.02
2018-03-03T03:30:12.877Z,71.07
2018-03-03T03:31:16.202Z,71.05
2018-03-03T03:32:19.538Z,71.10
2018-03-03T03:33:22.888Z,71.12
2018-03-03T03:34:26.253Z,71.16
2018-03-03T03:35:29.601Z,71.20
2018-03-03T03:36:32.929Z,71.20
2018-03-03T03:37:36.382Z,71.21
2018-03-03T03:38:39.743Z,71.21
2018-03-03T03:39:43.085Z,71.20
2018-03-03T03:40:46.468Z,71.18
2018-03-03T03:41:49.836Z,71.17
2018-03-03T03:42:53.412Z,71.15
2018-03-03T03:43:56.737Z,71.10
2018-03-03T03:45:00.159Z,71.11
2018-03-03T03:46:03.537Z,71.13
2018-03-03T03:47:06.833Z,71.11
2018-03-03T03:48:10.257Z,71.08
2018-03-03T03:49:13.609Z,71.07
2018-03-03T03:50:16.947Z,71.03
2018-03-03T03:51:20.307Z,71.02
2018-03-03T03:52:24.011Z,71.02
2018-03-03T03:53:27.459Z,71.02
2018-03-03T03:54:30.865Z,71.03
2018-03-03T03:55:34.262Z,71.03
2018-03-03T03:56:37.837Z,71.03
2018-03-03T03:57:41.269Z,70.97
2018-03-03T03:58:44.652Z,70.93
2018-03-03T03:59:47.976Z,70.89
2018-03-03T04:00:51.365Z,70.87
2018-03-03T04:01:54.724Z,70.86
2018-03-03T04:02:58.058Z,70.83
2018-03-03T04:04:01.448Z,70.81
2018-03-03T04:05:04.797Z,70.81
2018-03-03T04:06:08.175Z,70.78
2018-03-03T04:07:11.493Z,70.77
2018-03-03T04:08:14.904Z,70.74
2018-03-03T04:09:18.340Z,70.75
2018-03-03T04:10:21.822Z,70.75
2018-03-03T04:11:25.168Z,70.69
2018-03-03T04:12:28.495Z,70.67
2018-03-03T04:13:31.904Z,70.66
2018-03-03T04:14:35.419Z,70.66
2018-03-03T04:15:38.865Z,70.63
2018-03-03T04:16:42.206Z,70.61
2018-03-03T04:17:45.565Z,70.60
2018-03-03T04:18:48.886Z,70.54
2018-03-03T04:19:52.336Z,70.50
2018-03-03T04:20:55.667Z,70.48
2018-03-03T04:21:58.972Z,70.42
2018-03-03T04:23:02.398Z,70.39
2018-03-03T04:24:05.884Z,70.37
2018-03-03T04:25:09.389Z,70.33
2018-03-03T04:26:12.715Z,70.28
2018-03-03T04:27:16.037Z,70.23
2018-03-03T04:28:19.451Z,70.18
2018-03-03T04:29:22.950Z,70.11
2018-03-03T04:30:26.324Z,70.03
2018-03-03T04:31:29.623Z,70.00
2018-03-03T04:32:32.998Z,69.94
2018-03-03T04:33:36.421Z,69.89
2018-03-03T04:34:39.722Z,69.90
2018-03-03T04:35:43.055Z,69.88
2018-03-03T04:36:46.415Z,69.83
2018-03-03T04:37:49.807Z,69.78
2018-03-03T04:38:53.149Z,69.77
2018-03-03T04:39:56.596Z,69.75
2018-03-03T04:40:59.953Z,69.75
2018-03-03T04:42:03.268Z,69.67
2018-03-03T04:43:06.615Z,69.62
2018-03-03T04:44:09.943Z,69.57
2018-03-03T04:45:13.285Z,69.53
2018-03-03T04:46:16.756Z,69.50
2018-03-03T04:47:20.132Z,69.45
2018-03-03T04:48:23.513Z,69.43
2018-03-03T04:49:26.812Z,69.38
2018-03-03T04:50:30.232Z,69.35
2018-03-03T04:51:33.622Z,69.30
2018-03-03T04:52:37.001Z,69.25
2018-03-03T04:53:40.306Z,69.23
2018-03-03T04:54:43.672Z,69.22
2018-03-03T04:55:47.057Z,69.23
2018-03-03T04:56:50.484Z,69.25
2018-03-03T04:57:53.906Z,69.24
2018-03-03T05:00:49.086Z,69.23
2018-03-03T05:01:57.960Z,69.20
2018-03-03T05:03:01.823Z,69.20
2018-03-03T05:04:18.146Z,69.18
2018-03-03T05:05:41.154Z,69.19
2018-03-03T05:07:03.446Z,69.20
2018-03-03T05:08:07.696Z,69.20
2018-03-03T05:09:11.071Z,69.16
2018-03-03T05:10:14.863Z,69.12
2018-03-03T05:11:18.282Z,69.13
2018-03-03T05:12:27.278Z,69.08
2018-03-03T05:13:35.236Z,69.02
2018-03-03T05:14:45.016Z,68.97
2018-03-03T05:17:41.960Z,68.91
2018-03-03T05:20:20.681Z,68.79
2018-03-03T05:21:25.392Z,68.78
2018-03-03T05:22:35.366Z,68.75
2018-03-03T05:23:44.693Z,68.73
2018-03-03T05:24:53.745Z,68.72
2018-03-03T05:27:41.608Z,68.68
2018-03-03T05:28:50.597Z,68.69
2018-03-03T05:29:59.919Z,68.69
2018-03-03T05:32:45.733Z,68.63
2018-03-03T05:33:54.749Z,68.62
2018-03-03T05:35:03.765Z,68.62
2018-03-03T05:36:12.748Z,68.62
2018-03-03T05:38:56.556Z,68.63
2018-03-03T05:40:05.498Z,68.64
2018-03-03T05:41:14.415Z,68.65
2018-03-03T05:42:23.232Z,68.70
2018-03-03T05:43:32.254Z,68.74
2018-03-03T05:44:36.353Z,68.77
2018-03-03T05:45:45.154Z,68.75
2018-03-03T05:46:54.170Z,68.84
2018-03-03T05:48:01.483Z,68.89
2018-03-03T05:49:13.418Z,68.90
2018-03-03T05:50:17.508Z,68.93
2018-03-03T05:51:27.388Z,68.94
2018-03-03T05:52:36.236Z,68.98
2018-03-03T05:55:20.140Z,69.18
2018-03-03T05:56:29.928Z,69.20
2018-03-03T05:59:29.394Z,69.25
2018-03-03T06:02:07.021Z,69.30
2018-03-03T06:03:15.941Z,69.35
2018-03-03T06:04:24.905Z,69.39
2018-03-03T06:05:34.799Z,69.42
2018-03-03T06:06:49.983Z,69.44
2018-03-03T06:07:58.922Z,69.46
2018-03-03T06:09:04.157Z,69.49
2018-03-03T06:11:47.712Z,69.49
2018-03-03T06:12:51.236Z,69.54
2018-03-03T06:13:54.567Z,69.57
2018-03-03T06:14:57.909Z,69.61
2018-03-03T06:16:01.297Z,69.65
2018-03-03T06:17:04.690Z,69.69
2018-03-03T06:18:08.077Z,69.73
2018-03-03T06:19:11.446Z,69.76
2018-03-03T06:20:14.780Z,69.81
2018-03-03T06:21:18.207Z,69.84
2018-03-03T06:22:21.510Z,69.87
2018-03-03T06:23:24.898Z,69.90
2018-03-03T06:24:28.208Z,69.94
2018-03-03T06:25:31.603Z,70.00
2018-03-03T06:26:34.903Z,70.04
2018-03-03T06:27:38.334Z,70.14
2018-03-03T06:28:41.677Z,70.26
2018-03-03T06:29:45.036Z,70.33
2018-03-03T06:30:48.353Z,70.36
2018-03-03T06:31:51.728Z,70.41
2018-03-03T06:32:55.095Z,70.45
2018-03-03T06:33:58.498Z,70.50
2018-03-03T06:35:01.857Z,70.57
2018-03-03T06:36:05.666Z,70.60
2018-03-03T06:37:09.017Z,70.62
2018-03-03T06:38:12.464Z,70.64
2018-03-03T06:39:15.851Z,70.65
2018-03-03T06:40:19.229Z,70.67
2018-03-03T06:41:22.607Z,70.70
2018-03-03T06:42:26.156Z,70.71
2018-03-03T06:43:29.494Z,70.76
2018-03-03T06:44:32.873Z,70.82
2018-03-03T06:45:36.189Z,70.86
2018-03-03T06:46:39.882Z,70.89
2018-03-03T06:47:43.271Z,70.90
2018-03-03T06:48:46.663Z,70.90
2018-03-03T06:49:50.013Z,70.89
2018-03-03T06:50:53.361Z,70.84
2018-03-03T06:51:56.725Z,70.84
2018-03-03T06:53:00.062Z,70.85
2018-03-03T06:54:03.446Z,70.89
2018-03-03T06:55:06.929Z,70.95
2018-03-03T06:56:10.228Z,70.99
2018-03-03T06:57:13.607Z,71.04
2018-03-03T06:58:17.228Z,71.05
2018-03-03T06:59:20.543Z,71.08
2018-03-03T07:00:23.934Z,71.07
2018-03-03T07:01:27.257Z,71.07
2018-03-03T07:02:30.587Z,71.06
2018-03-03T07:03:33.967Z,71.07
2018-03-03T07:04:37.362Z,71.09
2018-03-03T07:05:40.725Z,71.09
2018-03-03T07:06:44.113Z,71.09
2018-03-03T07:07:47.533Z,71.11
2018-03-03T07:08:50.844Z,71.12
2018-03-03T07:09:54.289Z,71.14
2018-03-03T07:10:57.707Z,71.12
2018-03-03T07:12:01.039Z,71.11
2018-03-03T07:13:04.385Z,71.08
2018-03-03T07:14:07.792Z,71.04
2018-03-03T07:15:22.985Z,71.03
2018-03-03T07:16:26.367Z,71.08
2018-03-03T07:17:29.677Z,71.08
2018-03-03T07:18:32.992Z,71.04
2018-03-03T07:19:36.375Z,71.02
2018-03-03T07:20:39.805Z,71.03
2018-03-03T07:21:43.152Z,71.02
2018-03-03T07:22:46.543Z,70.99
2018-03-03T07:23:49.909Z,70.91
2018-03-03T07:24:53.270Z,70.91
2018-03-03T07:25:56.592Z,70.87
2018-03-03T07:27:00.021Z,70.87
2018-03-03T07:28:03.360Z,70.87
2018-03-03T07:29:06.709Z,70.82
2018-03-03T07:30:10.090Z,70.81
2018-03-03T07:31:13.421Z,70.79
2018-03-03T07:32:16.802Z,70.75
2018-03-03T07:33:20.189Z,70.72
2018-03-03T07:34:23.590Z,70.69
2018-03-03T07:35:26.922Z,70.67
2018-03-03T07:36:30.301Z,70.65
2018-03-03T07:37:33.656Z,70.62
2018-03-03T07:38:37.750Z,70.58
2018-03-03T07:39:41.140Z,70.56
2018-03-03T07:40:44.493Z,70.55
2018-03-03T07:41:47.874Z,70.44
2018-03-03T07:42:51.321Z,70.30
2018-03-03T07:43:54.662Z,70.22
2018-03-03T07:44:58.753Z,70.17
2018-03-03T07:46:02.311Z,70.10
2018-03-03T07:47:05.623Z,70.09
2018-03-03T07:48:09.024Z,70.05
2018-03-03T07:49:12.433Z,70.01
2018-03-03T07:50:15.800Z,69.89
2018-03-03T07:51:19.182Z,69.79
2018-03-03T07:52:22.519Z,69.76
2018-03-03T07:53:27.029Z,69.67
2018-03-03T07:54:30.382Z,69.57
2018-03-03T07:55:33.722Z,69.57
2018-03-03T07:56:49.250Z,69.56
2018-03-03T07:57:52.647Z,69.51
2018-03-03T07:58:58.675Z,69.46
2018-03-03T08:00:02.962Z,69.42
2018-03-03T08:01:06.368Z,69.29
2018-03-03T08:02:09.796Z,69.23
2018-03-03T08:03:13.219Z,69.12
2018-03-03T08:04:16.636Z,69.04
2018-03-03T08:05:20.064Z,68.94
2018-03-03T08:06:23.437Z,68.88
2018-03-03T08:07:26.793Z,68.83
2018-03-03T08:08:30.173Z,68.78
2018-03-03T08:09:33.587Z,68.71
2018-03-03T08:10:36.936Z,68.63
2018-03-03T08:11:40.234Z,68.56
2018-03-03T08:12:43.576Z,68.47
2018-03-03T08:13:47.800Z,68.40
2018-03-03T08:14:51.192Z,68.34
2018-03-03T08:15:54.528Z,68.21
2018-03-03T08:18:07.574Z,67.96
2018-03-03T08:19:10.917Z,67.84
2018-03-03T08:20:14.468Z,67.79
2018-03-03T08:21:17.924Z,67.72
2018-03-03T08:22:21.699Z,67.67
2018-03-03T08:23:25.023Z,67.58
2018-03-03T08:24:28.399Z,67.49
2018-03-03T08:25:32.129Z,67.40
2018-03-03T08:26:35.658Z,67.37
2018-03-03T08:27:39.096Z,67.28
2018-03-03T08:28:42.489Z,67.18
2018-03-03T08:29:45.854Z,67.12
2018-03-03T08:30:49.329Z,67.13
2018-03-03T08:31:52.686Z,67.02
2018-03-03T08:32:56.083Z,66.94
2018-03-03T08:33:59.835Z,66.87
2018-03-03T08:35:03.268Z,66.80
2018-03-03T08:36:06.842Z,66.75
2018-03-03T08:37:10.171Z,66.61
2018-03-03T08:38:13.496Z,66.49
2018-03-03T08:39:16.900Z,66.46
2018-03-03T08:40:20.224Z,66.42
2018-03-03T08:41:23.574Z,66.33
2018-03-03T08:42:26.900Z,66.29
2018-03-03T08:43:30.215Z,66.24
2018-03-03T08:44:33.576Z,66.19
2018-03-03T08:45:37.029Z,66.14
2018-03-03T08:46:40.370Z,66.05
2018-03-03T08:47:43.701Z,65.95
2018-03-03T08:48:47.100Z,65.87
2018-03-03T08:49:50.435Z,65.81
2018-03-03T08:50:53.832Z,65.78
2018-03-03T08:51:57.257Z,65.76
2018-03-03T08:53:00.619Z,65.71
2018-03-03T08:54:03.990Z,65.63
2018-03-03T08:55:07.297Z,65.64
2018-03-03T08:56:10.613Z,65.57
2018-03-03T08:57:14.035Z,65.58
2018-03-03T08:58:17.384Z,65.58
2018-03-03T08:59:21.073Z,65.56
2018-03-03T09:00:24.419Z,65.53
2018-03-03T09:01:27.731Z,65.39
2018-03-03T09:02:31.121Z,65.37
2018-03-03T09:03:34.453Z,65.32
2018-03-03T09:04:38.849Z,65.25
2018-03-03T09:05:42.237Z,65.22
2018-03-03T09:06:45.665Z,65.17
2018-03-03T09:07:49.046Z,65.17
2018-03-03T09:08:52.432Z,65.14
2018-03-03T09:09:55.798Z,65.08
2018-03-03T09:10:59.125Z,65.07
2018-03-03T09:12:02.460Z,65.04
2018-03-03T09:13:05.885Z,65.01
2018-03-03T09:14:09.320Z,65.01
2018-03-03T09:15:12.645Z,64.96
2018-03-03T09:16:16.030Z,64.92
2018-03-03T09:17:19.404Z,64.88
2018-03-03T09:18:22.761Z,64.85
2018-03-03T09:19:26.078Z,64.82
2018-03-03T09:20:29.509Z,64.80
2018-03-03T09:21:32.837Z,64.81
2018-03-03T09:22:36.309Z,64.82
2018-03-03T09:23:39.811Z,64.82
2018-03-03T09:24:43.116Z,64.79
2018-03-03T09:25:46.550Z,64.81
2018-03-03T09:26:49.861Z,64.84
2018-03-03T09:27:53.232Z,64.86
2018-03-03T09:28:56.586Z,64.83
2018-03-03T09:29:59.919Z,64.83
2018-03-03T09:31:03.228Z,64.83
2018-03-03T09:32:06.642Z,64.81
2018-03-03T09:33:10.041Z,64.77
2018-03-03T09:34:13.534Z,64.77
2018-03-03T09:35:16.907Z,64.75
2018-03-03T09:36:20.218Z,64.75
2018-03-03T09:37:23.532Z,64.72
2018-03-03T09:38:26.860Z,64.60
2018-03-03T09:39:30.231Z,64.50
2018-03-03T09:40:33.643Z,64.48
2018-03-03T09:41:37.077Z,64.46
2018-03-03T09:42:40.512Z,64.51
2018-03-03T09:43:44.028Z,64.53
2018-03-03T09:44:47.497Z,64.58
2018-03-03T09:45:50.869Z,64.64
2018-03-03T09:46:54.221Z,64.59
2018-03-03T09:47:57.549Z,64.57
2018-03-03T09:49:00.869Z,64.61
2018-03-03T09:50:04.272Z,64.62
2018-03-03T09:51:07.592Z,64.65
2018-03-03T09:52:10.926Z,64.66
2018-03-03T09:53:14.485Z,64.67
2018-03-03T09:54:17.816Z,64.61
2018-03-03T09:55:21.301Z,64.57
2018-03-03T09:56:24.852Z,64.61
2018-03-03T09:57:28.200Z,64.61
2018-03-03T09:58:31.591Z,64.44
2018-03-03T09:59:35.288Z,64.46
2018-03-03T10:00:38.714Z,64.40
2018-03-03T10:01:43.361Z,64.37
2018-03-03T10:02:45.527Z,64.33
2018-03-03T10:03:48.959Z,64.32
2018-03-03T10:04:52.294Z,64.18
2018-03-03T10:05:55.753Z,64.13
2018-03-03T10:06:59.049Z,64.21
2018-03-03T10:08:02.454Z,64.21
2018-03-03T10:09:05.886Z,64.26
2018-03-03T10:10:09.210Z,64.18
2018-03-03T10:11:12.575Z,64.10
2018-03-03T10:12:15.953Z,64.10
2018-03-03T10:13:19.280Z,64.16
2018-03-03T10:14:22.629Z,64.12
2018-03-03T10:15:26.019Z,64.10
2018-03-03T10:16:29.387Z,64.06
2018-03-03T10:17:32.733Z,64.04
2018-03-03T10:18:36.099Z,64.00
2018-03-03T10:19:39.484Z,64.07
2018-03-03T10:20:42.876Z,64.05
2018-03-03T10:21:46.286Z,64.05
2018-03-03T10:22:49.608Z,64.09
2018-03-03T10:23:53.064Z,63.94
2018-03-03T10:24:56.427Z,63.79
2018-03-03T10:25:59.722Z,63.71
2018-03-03T10:27:03.074Z,63.63
2018-03-03T10:28:06.395Z,63.54
2018-03-03T10:29:09.718Z,63.39
2018-03-03T10:30:13.038Z,63.29
2018-03-03T10:31:16.514Z,63.15
2018-03-03T10:32:20.169Z,63.04
2018-03-03T10:33:23.505Z,63.00
2018-03-03T10:34:27.041Z,62.76
2018-03-03T10:35:30.404Z,62.73
2018-03-03T10:36:33.752Z,62.62
2018-03-03T10:37:37.521Z,62.63
2018-03-03T10:38:40.916Z,62.46
2018-03-03T10:39:44.280Z,62.37
2018-03-03T10:40:47.750Z,62.20
2018-03-03T10:41:51.067Z,62.05
2018-03-03T10:42:54.417Z,61.94
2018-03-03T10:43:57.750Z,61.99
2018-03-03T10:45:01.302Z,62.03
2018-03-03T10:46:04.801Z,61.94
2018-03-03T10:47:08.130Z,61.85
2018-03-03T10:48:11.670Z,61.85
2018-03-03T10:49:15.057Z,61.78
2018-03-03T10:50:18.541Z,61.68
2018-03-03T10:51:22.030Z,61.57
2018-03-03T10:52:25.503Z,61.21
2018-03-03T10:53:28.858Z,61.08
2018-03-03T10:54:32.196Z,61.16
2018-03-03T10:55:35.520Z,61.15
2018-03-03T10:56:39.075Z,61.14
2018-03-03T10:57:42.442Z,61.10
2018-03-03T10:58:45.859Z,61.05
2018-03-03T10:59:49.270Z,60.93
2018-03-03T11:00:52.637Z,60.85
2018-03-03T11:01:56.042Z,60.69
2018-03-03T11:02:59.412Z,60.61
2018-03-03T11:04:02.902Z,60.57
2018-03-03T11:05:06.248Z,60.41
2018-03-03T11:06:09.565Z,60.33
2018-03-03T11:07:12.880Z,60.24
2018-03-03T11:08:16.307Z,60.16
2018-03-03T11:09:19.684Z,60.26
2018-03-03T11:10:23.098Z,60.28
2018-03-03T11:11:26.400Z,60.09
2018-03-03T11:12:29.743Z,60.11
2018-03-03T11:14:35.532Z,59.96
2018-03-03T11:15:38.955Z,59.92
2018-03-03T11:16:42.286Z,59.97
2018-03-03T11:17:45.650Z,59.92
2018-03-03T11:18:49.047Z,59.85
2018-03-03T11:19:52.604Z,59.72
2018-03-03T11:20:56.003Z,59.66
2018-03-03T11:21:59.411Z,59.67
2018-03-03T11:23:02.738Z,59.59
2018-03-03T11:24:06.161Z,59.46
2018-03-03T11:25:09.690Z,59.42
2018-03-03T11:26:13.040Z,59.29
2018-03-03T11:27:16.464Z,59.13
2018-03-03T11:28:19.804Z,59.21
2018-03-03T11:29:23.133Z,59.09
2018-03-03T11:30:26.579Z,59.06
2018-03-03T11:31:29.942Z,59.11
2018-03-03T11:32:33.366Z,59.26
2018-03-03T11:33:36.883Z,59.32
2018-03-03T11:34:40.306Z,59.34
2018-03-03T11:35:43.773Z,59.46
2018-03-03T11:36:47.135Z,59.62
2018-03-03T11:37:50.537Z,59.64
2018-03-03T11:38:54.005Z,59.60
2018-03-03T11:39:57.341Z,59.51
2018-03-03T11:41:00.758Z,59.32
2018-03-03T11:42:04.068Z,59.29
2018-03-03T11:43:07.417Z,59.37
2018-03-03T11:44:10.753Z,59.39
2018-03-03T11:45:14.060Z,59.41
2018-03-03T11:46:17.517Z,59.38
2018-03-03T11:47:20.861Z,59.35
2018-03-03T11:48:24.189Z,59.33
2018-03-03T11:49:27.618Z,59.34
2018-03-03T11:50:31.205Z,59.38
2018-03-03T11:51:36.489Z,59.36
2018-03-03T11:52:39.946Z,59.36
2018-03-03T11:53:43.636Z,59.45
2018-03-03T11:54:47.001Z,59.51
2018-03-03T11:55:50.365Z,59.48
2018-03-03T11:56:53.767Z,59.60
2018-03-03T11:57:57.156Z,59.71
2018-03-03T11:59:00.544Z,59.72
2018-03-03T12:00:04.479Z,59.65
2018-03-03T12:01:07.823Z,59.73
2018-03-03T12:02:11.212Z,59.83
2018-03-03T12:03:14.576Z,59.99
2018-03-03T12:04:18.083Z,60.04
2018-03-03T12:05:21.795Z,60.11
2018-03-03T12:06:25.163Z,60.06
2018-03-03T12:07:28.510Z,60.07
2018-03-03T12:08:31.914Z,60.04
2018-03-03T12:09:35.383Z,60.08
2018-03-03T12:10:38.782Z,60.03
2018-03-03T12:11:42.115Z,60.02
2018-03-03T12:12:45.504Z,60.09
2018-03-03T12:13:48.932Z,60.15
2018-03-03T12:14:52.268Z,60.26
2018-03-03T12:15:55.616Z,60.19
2018-03-03T12:16:59.001Z,60.12
2018-03-03T12:18:02.408Z,60.35
2018-03-03T12:19:05.732Z,60.42
2018-03-03T12:20:09.076Z,60.57
2018-03-03T12:21:12.447Z,60.65
2018-03-03T12:22:15.869Z,60.59
2018-03-03T12:23:19.248Z,60.63
2018-03-03T12:24:22.738Z,60.65
2018-03-03T12:25:26.103Z,60.71
2018-03-03T12:26:29.492Z,60.66
2018-03-03T12:27:32.853Z,60.70
2018-03-03T12:28:36.228Z,60.70
2018-03-03T12:29:39.565Z,60.62
2018-03-03T12:30:42.921Z,60.60
2018-03-03T12:31:46.283Z,60.54
2018-03-03T12:32:49.704Z,60.57
2018-03-03T12:33:53.692Z,60.68
2018-03-03T12:34:57.117Z,60.74
2018-03-03T12:36:00.477Z,60.76
2018-03-03T12:37:03.896Z,60.81
2018-03-03T12:38:07.208Z,60.75
2018-03-03T12:39:10.816Z,60.61
2018-03-03T12:40:14.225Z,60.54
2018-03-03T12:41:17.702Z,60.55
2018-03-03T12:42:21.003Z,60.57
2018-03-03T12:43:24.337Z,60.59
2018-03-03T12:44:27.877Z,60.60
2018-03-03T12:45:31.281Z,60.48
2018-03-03T12:46:34.589Z,60.38
2018-03-03T12:47:37.945Z,60.35
2018-03-03T12:48:41.347Z,60.31
2018-03-03T12:49:44.784Z,60.21
2018-03-03T12:50:48.114Z,60.16
2018-03-03T12:51:51.447Z,60.14
2018-03-03T12:52:55.370Z,60.15
2018-03-03T12:53:58.737Z,60.12
2018-03-03T12:55:02.333Z,60.15
2018-03-03T12:56:05.715Z,60.10
2018-03-03T12:57:09.032Z,60.11
2018-03-03T12:58:12.446Z,60.09
2018-03-03T12:59:15.873Z,60.11
2018-03-03T13:00:19.806Z,59.96
2018-03-03T13:01:23.237Z,59.94
2018-03-03T13:02:26.607Z,59.95
2018-03-03T13:03:30.136Z,60.06
2018-03-03T13:04:33.518Z,60.11
2018-03-03T13:05:38.025Z,60.15
2018-03-03T13:06:41.363Z,60.18
2018-03-03T13:07:44.743Z,60.21
2018-03-03T13:08:48.136Z,60.21
2018-03-03T13:09:51.457Z,60.00
2018-03-03T13:10:54.904Z,59.87
2018-03-03T13:11:58.238Z,59.89
2018-03-03T13:13:01.530Z,59.87
2018-03-03T13:14:04.907Z,59.82
2018-03-03T13:15:08.220Z,59.77
2018-03-03T13:16:11.575Z,59.73
2018-03-03T13:17:15.614Z,59.70
2018-03-03T13:18:19.470Z,59.73
2018-03-03T13:19:22.869Z,59.73
2018-03-03T13:20:26.210Z,59.73
2018-03-03T13:21:29.793Z,59.75
2018-03-03T13:22:33.093Z,59.74
2018-03-03T13:23:36.708Z,59.66
2018-03-03T13:24:40.031Z,59.64
2018-03-03T13:25:43.398Z,59.65
2018-03-03T13:26:46.742Z,59.68
2018-03-03T13:27:50.094Z,59.66
2018-03-03T13:28:53.444Z,59.67
2018-03-03T13:29:56.971Z,59.64
2018-03-03T13:31:00.393Z,59.59
2018-03-03T13:32:03.798Z,59.54
2018-03-03T13:33:07.146Z,59.50
2018-03-03T13:34:10.453Z,59.47
2018-03-03T13:35:13.944Z,59.45
2018-03-03T13:36:17.374Z,59.39
2018-03-03T13:37:20.785Z,59.41
2018-03-03T13:38:24.104Z,59.47
2018-03-03T13:39:27.811Z,59.42
2018-03-03T13:40:31.244Z,59.39
2018-03-03T13:41:34.556Z,59.26
2018-03-03T13:42:37.940Z,59.22
2018-03-03T13:43:41.383Z,59.22
2018-03-03T13:44:44.747Z,59.22
2018-03-03T13:45:48.656Z,59.18
2018-03-03T13:46:52.001Z,59.22
2018-03-03T13:47:56.627Z,59.15
2018-03-03T13:49:00.131Z,59.13
2018-03-03T13:50:03.518Z,59.10
2018-03-03T13:51:06.896Z,59.08
2018-03-03T13:52:10.220Z,59.05
2018-03-03T13:53:13.569Z,59.01
2018-03-03T13:54:16.960Z,58.99
2018-03-03T13:55:20.430Z,58.97
2018-03-03T13:56:23.806Z,59.00
2018-03-03T13:57:27.124Z,58.94
2018-03-03T13:58:30.493Z,58.91
2018-03-03T13:59:33.834Z,58.92
2018-03-03T14:00:37.445Z,58.92